KDHT/DHT METAR and TAF weather

Enter ICAO airport designator
Station Type Date Time Source
KDHT METAR 2022/11/27 08:53 UTC NOAA

KDHT 270853Z AUTO 36019KT 10SM CLR 04/M04 A2990 RMK AO2 PK WND 36036/0826 SLP111 T00441039 51028 $


Station Type Date Time Source
KDHT Decoded METAR 2022/11/27 08:53 UTC NOAA

DALHART MUNICIPAL AIRPORT, TX, United States (KDHT) 36-01N 102-33W 1217M
Nov 27, 2022 - 03:53 AM EST / 2022.11.27 0853 UTC
Wind: from the N (360 degrees) at 22 MPH (19 KT):0
Visibility: 10 mile(s):0
Sky conditions: clear
Temperature: 39.9 F (4.4 C)
Dew Point: 25.0 F (-3.9 C)
Relative Humidity: 54%
Pressure (altimeter): 29.9 in. Hg (1012 hPa)
Pressure tendency: 0.08 inches (2.8 hPa) higher than three hours ago
ob: KDHT 270853Z AUTO 36019KT 10SM CLR 04/M04 A2990 RMK AO2 PK WND 36036/0826 SLP111 T00441039 51028
cycle: 9

Station Type Date Time Source
KDHT TAF 2022/11/27 06:30 UTC NOAA

TAF KDHT 270529Z 2706/2806 35015G25KT P6SM SCT300
FM271200 36014KT P6SM BKN080
FM271800 02007KT P6SM BKN080
FM272100 18007KT P6SM SKC

Example: see airport list